createdAt,value
2023-03-11T00:02:17.161Z,20.73
2023-03-11T00:04:46.750Z,23.00
2023-03-11T00:07:17.382Z,20.33
2023-03-11T00:09:47.067Z,20.53
2023-03-11T00:12:16.268Z,19.17
2023-03-11T00:14:45.545Z,19.87
2023-03-11T00:17:14.870Z,20.43
2023-03-11T00:19:44.068Z,20.00
2023-03-11T00:22:13.275Z,19.23
2023-03-11T00:24:44.082Z,20.50
2023-03-11T00:27:13.490Z,20.83
2023-03-11T00:29:42.781Z,21.30
2023-03-11T00:32:12.437Z,19.07
2023-03-11T00:34:41.680Z,19.33
2023-03-11T00:37:11.076Z,18.63
2023-03-11T00:39:40.303Z,21.00
2023-03-11T00:42:11.202Z,20.93
2023-03-11T00:44:41.681Z,19.07
2023-03-11T00:47:12.404Z,18.90
2023-03-11T00:49:41.659Z,18.57
2023-03-11T00:52:11.157Z,21.40
2023-03-11T00:54:40.481Z,19.03
2023-03-11T00:57:11.218Z,18.07
2023-03-11T00:59:40.756Z,16.70
2023-03-11T01:02:10.198Z,20.73
2023-03-11T01:04:39.684Z,18.53
2023-03-11T01:07:11.284Z,16.07
2023-03-11T01:09:40.748Z,18.17
2023-03-11T01:12:11.782Z,17.53
2023-03-11T01:14:41.017Z,18.13
2023-03-11T01:17:11.745Z,18.67
2023-03-11T01:19:40.939Z,18.13
2023-03-11T01:22:10.378Z,17.77
2023-03-11T01:24:39.584Z,18.97
2023-03-11T01:27:10.555Z,18.60
2023-03-11T01:29:39.828Z,17.77
2023-03-11T01:32:09.549Z,17.47
2023-03-11T01:34:39.375Z,16.93
2023-03-11T01:37:08.699Z,17.87
2023-03-11T01:39:37.959Z,18.50
2023-03-11T01:42:07.666Z,20.50
2023-03-11T01:44:38.369Z,17.23
2023-03-11T01:47:37.024Z,17.43
2023-03-11T01:50:10.242Z,17.30
2023-03-11T01:52:39.951Z,19.27
2023-03-11T01:55:10.653Z,17.90
2023-03-11T01:57:42.267Z,19.17
2023-03-11T02:00:16.900Z,17.20
2023-03-11T02:02:51.815Z,15.07
2023-03-11T02:05:24.104Z,16.53
2023-03-11T02:07:56.494Z,15.60
2023-03-11T02:10:30.602Z,19.77
2023-03-11T02:13:00.147Z,20.27
2023-03-11T02:15:33.173Z,17.40
2023-03-11T02:18:06.759Z,15.77
2023-03-11T02:20:45.524Z,16.53
2023-03-11T02:23:16.953Z,15.73
2023-03-11T02:25:54.460Z,14.77
2023-03-11T02:28:27.313Z,15.83
2023-03-11T02:30:58.892Z,15.77
2023-03-11T02:33:33.042Z,14.83
2023-03-11T02:36:02.410Z,15.83
2023-03-11T02:38:31.910Z,15.83
2023-03-11T02:41:03.513Z,15.63
2023-03-11T02:43:42.470Z,16.47
2023-03-11T02:46:14.040Z,15.43
2023-03-11T02:48:44.792Z,15.23
2023-03-11T02:51:15.423Z,13.67
2023-03-11T02:53:49.141Z,15.23
2023-03-11T02:56:18.554Z,13.43
2023-03-11T02:58:49.503Z,13.87
2023-03-11T03:01:18.826Z,12.80
2023-03-11T03:03:50.025Z,13.77
2023-03-11T03:06:20.231Z,13.50
2023-03-11T03:08:51.676Z,14.40
2023-03-11T03:11:21.193Z,13.77
2023-03-11T03:13:52.611Z,12.83
2023-03-11T03:16:22.305Z,15.20
2023-03-11T03:18:51.904Z,11.93
2023-03-11T03:21:21.346Z,11.43
2023-03-11T03:23:50.796Z,13.90
2023-03-11T03:26:20.119Z,13.50
2023-03-11T03:28:52.798Z,12.73
2023-03-11T03:31:22.214Z,10.30
2023-03-11T03:33:51.669Z,11.97
2023-03-11T03:36:21.006Z,11.63
2023-03-11T03:38:57.656Z,12.10
2023-03-11T03:41:30.625Z,10.50
2023-03-11T03:44:02.426Z,8.90
2023-03-11T03:46:32.917Z,10.67
2023-03-11T03:49:02.621Z,12.50
2023-03-11T03:51:32.989Z,12.40
2023-03-11T03:54:08.217Z,10.17
2023-03-11T03:56:38.075Z,11.67
2023-03-11T03:59:08.974Z,10.37
2023-03-11T04:01:43.407Z,11.60
2023-03-11T04:04:12.855Z,11.13
2023-03-11T04:06:42.237Z,11.30
2023-03-11T04:09:12.777Z,9.40
2023-03-11T04:11:42.209Z,11.70
2023-03-11T04:14:14.042Z,11.03
2023-03-11T04:16:50.153Z,11.53
2023-03-11T04:19:19.620Z,10.60
2023-03-11T04:21:51.000Z,11.47
2023-03-11T04:24:21.712Z,11.23
2023-03-11T04:26:51.579Z,12.33
2023-03-11T04:29:22.869Z,11.37
2023-03-11T04:31:54.648Z,10.37
2023-03-11T04:34:23.970Z,11.03
2023-03-11T04:36:55.112Z,16.13
2023-03-11T04:39:29.845Z,11.93
2023-03-11T04:41:59.277Z,13.10
2023-03-11T04:44:31.519Z,13.83
2023-03-11T04:47:00.783Z,15.57
2023-03-11T04:49:30.374Z,13.80
2023-03-11T04:51:59.750Z,13.70
2023-03-11T04:54:29.226Z,11.07
2023-03-11T04:56:58.679Z,12.00
2023-03-11T04:59:28.137Z,12.80
2023-03-11T05:01:58.951Z,13.80
2023-03-11T05:04:28.222Z,13.57
2023-03-11T05:06:57.671Z,14.03
2023-03-11T05:09:28.265Z,11.90
2023-03-11T05:11:57.988Z,12.47
2023-03-11T05:14:28.863Z,12.47
2023-03-11T05:17:00.935Z,11.67
2023-03-11T05:19:35.435Z,14.03
2023-03-11T05:22:14.248Z,13.60
2023-03-11T05:24:43.980Z,12.73
2023-03-11T05:27:13.456Z,12.00
2023-03-11T05:29:42.925Z,11.90
2023-03-11T05:32:16.243Z,10.73
2023-03-11T05:34:48.094Z,11.93
2023-03-11T05:37:18.636Z,11.93
2023-03-11T05:39:50.134Z,14.57
2023-03-11T05:42:21.403Z,11.27
2023-03-11T05:44:53.531Z,11.20
2023-03-11T05:47:26.442Z,13.73
2023-03-11T05:49:56.038Z,28.27
2023-03-11T05:52:25.798Z,14.57
2023-03-11T05:54:55.462Z,11.17
2023-03-11T05:57:28.488Z,12.87
2023-03-11T05:59:58.561Z,16.00
2023-03-11T06:02:29.488Z,10.50
2023-03-11T06:04:58.806Z,11.10
2023-03-11T06:07:28.260Z,10.13
2023-03-11T06:09:58.010Z,9.67
2023-03-11T06:12:27.311Z,9.23
2023-03-11T06:15:17.111Z,7.83
2023-03-11T06:17:48.314Z,8.50
2023-03-11T06:20:17.825Z,6.37
2023-03-11T06:22:50.156Z,7.00
2023-03-11T06:25:20.831Z,6.57
2023-03-11T06:27:51.937Z,6.50
2023-03-11T06:30:22.556Z,7.63
2023-03-11T06:33:02.294Z,5.90
2023-03-11T06:35:31.643Z,6.67
2023-03-11T06:38:00.895Z,7.03
2023-03-11T06:40:30.240Z,5.63
2023-03-11T06:42:59.583Z,5.70
2023-03-11T06:45:33.296Z,7.53
2023-03-11T06:48:04.031Z,7.30
2023-03-11T06:50:34.229Z,6.17
2023-03-11T06:53:06.862Z,5.13
2023-03-11T06:55:37.701Z,6.70
2023-03-11T06:58:07.012Z,8.13
2023-03-11T07:00:36.301Z,7.73
2023-03-11T07:03:07.412Z,6.97
2023-03-11T07:05:36.680Z,6.67
2023-03-11T07:08:09.916Z,6.20
2023-03-11T07:10:39.178Z,6.47
2023-03-11T07:13:08.553Z,6.10
2023-03-11T07:15:37.907Z,6.20
2023-03-11T07:18:08.904Z,6.80
2023-03-11T07:20:38.141Z,6.63
2023-03-11T07:23:07.430Z,6.33
2023-03-11T07:25:36.731Z,6.93
2023-03-11T07:28:06.474Z,6.93
2023-03-11T07:30:36.039Z,6.33
2023-03-11T07:33:05.390Z,7.17
2023-03-11T07:35:37.462Z,8.30
2023-03-11T07:38:06.895Z,10.00
2023-03-11T07:40:36.400Z,7.73
2023-03-11T07:43:05.631Z,7.90
2023-03-11T07:45:35.083Z,8.30
2023-03-11T07:48:05.170Z,9.27
2023-03-11T07:50:35.831Z,8.50
2023-03-11T07:53:05.114Z,10.03
2023-03-11T07:55:34.800Z,10.03
2023-03-11T07:58:04.223Z,9.47
2023-03-11T08:00:33.798Z,10.00
2023-03-11T08:03:03.103Z,10.27
2023-03-11T08:05:36.761Z,9.93
2023-03-11T08:08:06.148Z,9.97
2023-03-11T08:10:38.306Z,10.20
2023-03-11T08:13:07.672Z,9.80
2023-03-11T08:15:38.563Z,9.97
2023-03-11T08:18:10.033Z,8.40
2023-03-11T08:20:41.620Z,8.70
2023-03-11T08:23:10.802Z,8.53
2023-03-11T08:25:41.362Z,8.20
2023-03-11T08:28:10.852Z,9.00
2023-03-11T08:30:42.012Z,8.77
2023-03-11T08:33:11.454Z,8.70
2023-03-11T08:35:42.545Z,8.30
2023-03-11T08:38:11.975Z,9.07
2023-03-11T08:40:41.165Z,9.77
2023-03-11T08:43:13.597Z,9.70
2023-03-11T08:45:43.473Z,8.90
2023-03-11T08:48:14.326Z,9.30
2023-03-11T08:50:53.745Z,10.40
2023-03-11T08:53:24.636Z,10.83
2023-03-11T08:55:54.860Z,11.80
2023-03-11T08:58:24.130Z,10.30
2023-03-11T09:00:53.259Z,9.77
2023-03-11T09:03:22.675Z,9.77
2023-03-11T09:05:59.260Z,9.90
2023-03-11T09:08:29.285Z,10.57
2023-03-11T09:10:58.868Z,10.50
2023-03-11T09:13:28.203Z,10.20
2023-03-11T09:15:57.541Z,10.43
2023-03-11T09:18:27.611Z,11.33
2023-03-11T09:20:59.481Z,11.50
2023-03-11T09:23:28.966Z,11.83
2023-03-11T09:25:58.200Z,12.13
2023-03-11T09:28:27.424Z,13.00
2023-03-11T09:30:56.698Z,11.73
2023-03-11T09:33:26.603Z,13.43
2023-03-11T09:35:56.021Z,13.30
2023-03-11T09:38:27.006Z,12.40
2023-03-11T09:41:02.051Z,13.10
2023-03-11T09:43:54.391Z,12.27
2023-03-11T09:46:40.821Z,13.00
2023-03-11T09:49:18.708Z,13.03
2023-03-11T09:51:55.531Z,15.33
2023-03-11T09:54:29.284Z,17.43
2023-03-11T09:56:59.044Z,17.93
2023-03-11T09:59:34.136Z,14.90
2023-03-11T10:02:04.351Z,17.87
2023-03-11T10:04:39.927Z,20.97
2023-03-11T10:07:18.269Z,21.63
2023-03-11T10:09:51.921Z,21.63
2023-03-11T10:12:35.819Z,21.97
2023-03-11T10:15:16.356Z,19.93
2023-03-11T10:18:00.690Z,18.97
2023-03-11T10:20:36.790Z,18.70
2023-03-11T10:23:17.159Z,17.27
2023-03-11T10:26:02.253Z,13.00
2023-03-11T10:28:36.998Z,12.80
2023-03-11T10:31:19.209Z,13.07
2023-03-11T10:33:53.922Z,13.77
2023-03-11T10:36:27.525Z,12.17
2023-03-11T10:38:57.956Z,11.03
2023-03-11T10:41:33.784Z,11.00
2023-03-11T10:44:08.278Z,10.07
2023-03-11T10:46:38.110Z,9.53
2023-03-11T10:49:14.098Z,9.17
2023-03-11T10:51:47.268Z,8.73
2023-03-11T10:54:28.555Z,12.00
2023-03-11T10:57:02.044Z,11.90
2023-03-11T10:59:33.972Z,8.57
2023-03-11T11:02:05.633Z,7.77
2023-03-11T11:04:38.729Z,7.77
2023-03-11T11:07:29.544Z,8.73
2023-03-11T11:10:16.816Z,8.33
2023-03-11T11:12:59.409Z,8.57
2023-03-11T11:15:32.102Z,8.50
2023-03-11T11:18:03.255Z,7.60
2023-03-11T11:20:34.098Z,7.00
2023-03-11T11:23:05.237Z,6.33
2023-03-11T11:25:37.173Z,6.10
2023-03-11T11:28:19.069Z,5.60
2023-03-11T11:30:56.526Z,5.43
2023-03-11T11:33:28.823Z,5.03
2023-03-11T11:36:00.719Z,4.73
2023-03-11T11:38:31.999Z,4.73
2023-03-11T11:41:05.269Z,3.90
2023-03-11T11:43:48.254Z,3.90
2023-03-11T11:46:28.511Z,3.80
2023-03-11T11:49:07.416Z,4.00
2023-03-11T11:51:42.711Z,3.93
2023-03-11T11:54:19.240Z,3.60
2023-03-11T11:56:48.960Z,4.20
2023-03-11T11:59:22.243Z,4.40
2023-03-11T12:02:01.781Z,3.87
2023-03-11T12:04:55.018Z,4.27
2023-03-11T12:07:40.095Z,3.63
2023-03-11T12:10:24.249Z,4.30
2023-03-11T12:13:18.462Z,4.33
2023-03-11T12:15:53.275Z,4.27
2023-03-11T12:18:27.533Z,4.83
2023-03-11T12:20:57.623Z,4.33
2023-03-11T12:23:39.671Z,4.33
2023-03-11T12:26:17.992Z,5.27
2023-03-11T12:28:54.700Z,4.60
2023-03-11T12:31:28.763Z,4.80
2023-03-11T12:34:02.597Z,5.33
2023-03-11T12:36:34.363Z,5.60
2023-03-11T12:39:06.948Z,6.20
2023-03-11T12:41:40.178Z,5.93
2023-03-11T12:44:27.757Z,5.90
2023-03-11T12:47:29.109Z,6.27
2023-03-11T12:50:15.152Z,7.00
2023-03-11T12:52:56.133Z,6.73
2023-03-11T12:55:37.952Z,5.60
2023-03-11T12:58:31.992Z,7.10
2023-03-11T13:01:23.439Z,7.03
2023-03-11T13:04:07.215Z,6.30
2023-03-11T13:07:07.589Z,6.13
2023-03-11T13:09:37.239Z,6.33
2023-03-11T13:12:44.508Z,7.23
2023-03-11T13:15:39.095Z,6.07
2023-03-11T13:18:19.860Z,5.90
2023-03-11T13:21:01.272Z,6.50
2023-03-11T13:23:34.960Z,6.90
2023-03-11T13:26:31.671Z,6.23
2023-03-11T13:29:36.725Z,6.57
2023-03-11T13:32:33.395Z,5.97
2023-03-11T13:35:14.285Z,6.13
2023-03-11T13:37:59.400Z,6.50
2023-03-11T13:40:34.642Z,6.93
2023-03-11T13:43:07.154Z,6.83
2023-03-11T13:45:38.089Z,6.93
2023-03-11T13:48:15.919Z,7.50
2023-03-11T13:50:48.848Z,6.30
2023-03-11T13:53:23.163Z,15.47
2023-03-11T13:55:53.194Z,6.27
2023-03-11T13:58:24.536Z,6.43
2023-03-11T14:00:56.296Z,5.97
2023-03-11T14:03:26.937Z,8.90
2023-03-11T14:06:02.453Z,7.60
2023-03-11T14:08:35.563Z,6.00
2023-03-11T14:11:16.649Z,6.73
2023-03-11T14:13:48.550Z,7.07
2023-03-11T14:16:21.477Z,10.17
2023-03-11T14:19:04.058Z,7.30
2023-03-11T14:21:33.747Z,9.10
2023-03-11T14:24:05.621Z,6.93
2023-03-11T14:26:37.352Z,9.23
2023-03-11T14:29:12.867Z,8.13
2023-03-11T14:31:44.389Z,5.50
2023-03-11T14:34:17.864Z,5.83
2023-03-11T14:36:51.219Z,5.70
2023-03-11T14:39:33.999Z,6.60
2023-03-11T14:42:14.238Z,7.20
2023-03-11T14:44:45.698Z,6.57
2023-03-11T14:47:21.523Z,7.70
2023-03-11T14:49:54.423Z,6.87
2023-03-11T14:52:33.311Z,8.07
2023-03-11T14:55:08.329Z,7.27
2023-03-11T14:57:41.848Z,7.67
2023-03-11T15:00:18.891Z,12.00
2023-03-11T15:03:02.659Z,6.17
2023-03-11T15:05:39.872Z,4.83
2023-03-11T15:08:09.980Z,6.47
2023-03-11T15:10:41.476Z,5.80
2023-03-11T15:13:17.246Z,8.27
2023-03-11T15:15:56.852Z,6.17
2023-03-11T15:18:31.550Z,4.87
2023-03-11T15:21:10.395Z,6.23
2023-03-11T15:23:39.907Z,7.97
2023-03-11T15:26:25.081Z,4.80
2023-03-11T15:29:00.169Z,4.40
2023-03-11T15:31:38.625Z,7.30
2023-03-11T15:34:22.770Z,7.87
2023-03-11T15:37:23.844Z,7.23
2023-03-11T15:39:54.439Z,4.60
2023-03-11T15:42:27.453Z,5.13
2023-03-11T15:45:16.879Z,5.13
2023-03-11T15:47:48.077Z,5.90
2023-03-11T15:50:37.627Z,5.67
2023-03-11T15:53:14.627Z,6.30
2023-03-11T15:55:44.688Z,5.30
2023-03-11T15:58:18.914Z,5.17
2023-03-11T16:00:51.140Z,4.97
2023-03-11T16:03:21.439Z,5.27
2023-03-11T16:05:52.009Z,5.73
2023-03-11T16:08:22.001Z,6.10
2023-03-11T16:10:52.349Z,5.13
2023-03-11T16:13:23.755Z,4.77
2023-03-11T16:15:53.492Z,4.77
2023-03-11T16:18:24.399Z,6.97
2023-03-11T16:20:55.860Z,5.40
2023-03-11T16:23:28.197Z,6.03
2023-03-11T16:26:03.797Z,4.53
2023-03-11T16:28:35.910Z,5.60
2023-03-11T16:31:07.085Z,3.77
2023-03-11T16:33:37.435Z,5.57
2023-03-11T16:36:09.009Z,4.17
2023-03-11T16:38:47.165Z,6.57
2023-03-11T16:41:19.002Z,4.20
2023-03-11T16:43:50.686Z,3.83
2023-03-11T16:46:21.262Z,3.93
2023-03-11T16:48:54.283Z,4.33
2023-03-11T16:51:24.749Z,4.53
2023-03-11T16:53:55.194Z,5.50
2023-03-11T16:56:27.273Z,4.73
2023-03-11T16:58:59.356Z,4.70
2023-03-11T17:01:29.989Z,4.40
2023-03-11T17:03:59.835Z,7.73
2023-03-11T17:06:31.800Z,5.20
2023-03-11T17:09:04.012Z,5.53
2023-03-11T17:11:36.160Z,6.80
2023-03-11T17:14:16.172Z,4.77
2023-03-11T17:16:47.652Z,9.37
2023-03-11T17:19:18.866Z,4.67
2023-03-11T17:21:49.428Z,5.07
2023-03-11T17:24:19.820Z,6.13
2023-03-11T17:26:50.203Z,6.55
2023-03-11T17:29:21.743Z,6.03
2023-03-11T17:31:51.724Z,6.80
2023-03-11T17:34:23.004Z,5.77
2023-03-11T17:36:53.512Z,6.20
2023-03-11T17:39:24.736Z,5.27
2023-03-11T17:41:56.260Z,6.27
2023-03-11T17:44:44.560Z,6.97
2023-03-11T17:47:22.081Z,7.13
2023-03-11T17:49:57.254Z,8.50
2023-03-11T17:52:28.140Z,6.10
2023-03-11T17:55:02.128Z,6.47
2023-03-11T17:57:44.465Z,5.17
2023-03-11T18:00:18.696Z,6.47
2023-03-11T18:02:50.899Z,7.43
2023-03-11T18:05:21.836Z,5.83
2023-03-11T18:08:27.799Z,6.17
2023-03-11T18:11:03.810Z,5.10
2023-03-11T18:13:38.233Z,5.60
2023-03-11T18:16:17.005Z,6.47
2023-03-11T18:18:57.372Z,5.90
2023-03-11T18:21:34.339Z,6.23
2023-03-11T18:24:08.212Z,6.83
2023-03-11T18:26:39.818Z,6.37
2023-03-11T18:29:10.811Z,7.93
2023-03-11T18:31:43.553Z,8.43
2023-03-11T18:34:15.707Z,5.57
2023-03-11T18:36:52.255Z,5.33
2023-03-11T18:39:23.031Z,5.83
2023-03-11T18:41:53.946Z,3.80
2023-03-11T18:44:24.342Z,8.10
2023-03-11T18:47:02.841Z,4.50
2023-03-11T18:49:35.255Z,10.87
2023-03-11T18:52:06.832Z,5.13
2023-03-11T18:54:40.433Z,4.40
2023-03-11T18:57:12.629Z,3.80
2023-03-11T18:59:43.802Z,7.60
2023-03-11T19:02:17.140Z,4.60
2023-03-11T19:04:51.306Z,5.47
2023-03-11T19:07:24.946Z,4.77
2023-03-11T19:09:56.269Z,4.73
2023-03-11T19:12:30.035Z,3.90
2023-03-11T19:15:01.326Z,5.70
2023-03-11T19:17:34.015Z,4.10
2023-03-11T19:20:09.159Z,4.00
2023-03-11T19:22:40.907Z,4.80
2023-03-11T19:25:14.376Z,6.00
2023-03-11T19:27:44.743Z,6.30
2023-03-11T19:30:16.229Z,4.10
2023-03-11T19:32:53.414Z,3.80
2023-03-11T19:35:26.540Z,4.97
2023-03-11T19:37:58.949Z,5.67
2023-03-11T19:40:32.193Z,4.73
2023-03-11T19:43:07.087Z,5.23
2023-03-11T19:45:40.452Z,4.23
2023-03-11T19:48:20.801Z,5.67
2023-03-11T19:50:58.828Z,5.20
2023-03-11T19:53:36.206Z,4.27
2023-03-11T19:56:08.304Z,7.67
2023-03-11T19:58:39.483Z,5.73
2023-03-11T20:01:20.417Z,6.07
2023-03-11T20:03:55.756Z,7.30
2023-03-11T20:06:32.020Z,6.23
2023-03-11T20:09:03.428Z,6.07
2023-03-11T20:11:35.055Z,3.70
2023-03-11T20:14:08.093Z,5.77
2023-03-11T20:16:40.816Z,4.10
2023-03-11T20:19:12.880Z,8.23
2023-03-11T20:21:45.813Z,5.70
2023-03-11T20:24:18.691Z,4.23
2023-03-11T20:26:51.302Z,5.90
2023-03-11T20:29:23.725Z,6.67
2023-03-11T20:31:54.776Z,5.37
2023-03-11T20:34:28.066Z,5.30
2023-03-11T20:36:59.076Z,4.30
2023-03-11T20:39:30.051Z,5.67
2023-03-11T20:42:00.892Z,5.77
2023-03-11T20:44:31.855Z,5.70
2023-03-11T20:47:03.138Z,5.97
2023-03-11T20:49:36.489Z,9.23
2023-03-11T20:52:06.759Z,7.53
2023-03-11T20:54:37.653Z,7.13
2023-03-11T20:57:08.613Z,4.70
2023-03-11T20:59:39.116Z,6.30
2023-03-11T21:02:13.932Z,5.93
2023-03-11T21:04:46.750Z,7.83
2023-03-11T21:07:17.066Z,7.47
2023-03-11T21:09:47.658Z,5.87
2023-03-11T21:12:17.193Z,6.60
2023-03-11T21:14:47.933Z,5.97
2023-03-11T21:17:19.280Z,7.40
2023-03-11T21:19:50.812Z,9.10
2023-03-11T21:22:21.596Z,11.63
2023-03-11T21:24:54.109Z,6.43
2023-03-11T21:27:27.388Z,5.97
2023-03-11T21:29:58.286Z,5.53
2023-03-11T21:32:32.052Z,5.67
2023-03-11T21:35:04.227Z,7.17
2023-03-11T21:37:34.521Z,7.07
2023-03-11T21:40:06.451Z,7.23
2023-03-11T21:42:36.578Z,6.53
2023-03-11T21:45:06.697Z,6.60
2023-03-11T21:47:37.571Z,7.17
2023-03-11T21:50:09.942Z,6.77
2023-03-11T21:52:39.550Z,10.03
2023-03-11T21:55:09.656Z,6.23
2023-03-11T21:57:39.086Z,8.10
2023-03-11T22:00:10.281Z,8.60
2023-03-11T22:02:39.752Z,6.43
2023-03-11T22:05:12.365Z,10.33
2023-03-11T22:07:41.710Z,7.40
2023-03-11T22:10:12.394Z,7.33
2023-03-11T22:12:41.803Z,5.77
2023-03-11T22:15:12.397Z,6.20
2023-03-11T22:17:41.931Z,7.70
2023-03-11T22:20:13.985Z,6.23
2023-03-11T22:22:43.294Z,8.10
2023-03-11T22:25:12.630Z,5.70
2023-03-11T22:27:42.059Z,7.30
2023-03-11T22:30:12.518Z,7.33
2023-03-11T22:32:41.981Z,7.67
2023-03-11T22:35:12.719Z,6.43
2023-03-11T22:37:41.913Z,7.47
2023-03-11T22:40:12.960Z,9.00
2023-03-11T22:42:42.262Z,6.93
2023-03-11T22:45:12.481Z,6.07
2023-03-11T22:47:42.669Z,7.83
2023-03-11T22:50:13.934Z,7.87
2023-03-11T22:52:43.291Z,6.57
2023-03-11T22:55:13.010Z,7.03
2023-03-11T22:57:42.274Z,7.13
2023-03-11T23:00:17.410Z,5.57
2023-03-11T23:02:46.998Z,8.67
2023-03-11T23:05:18.116Z,6.53
2023-03-11T23:07:47.276Z,7.17
2023-03-11T23:10:20.467Z,5.80
2023-03-11T23:12:50.625Z,6.67
2023-03-11T23:15:21.014Z,7.33
2023-03-11T23:17:50.554Z,8.00
2023-03-11T23:20:21.756Z,6.87
2023-03-11T23:22:51.045Z,7.03
2023-03-11T23:25:20.391Z,4.80
2023-03-11T23:27:49.852Z,7.30
2023-03-11T23:30:19.628Z,6.33
2023-03-11T23:32:50.023Z,6.57
2023-03-11T23:35:21.087Z,6.63
2023-03-11T23:37:50.531Z,6.17
2023-03-11T23:40:20.386Z,6.77
2023-03-11T23:42:50.955Z,8.27
2023-03-11T23:45:20.427Z,6.87
2023-03-11T23:47:49.785Z,5.90
2023-03-11T23:50:20.741Z,6.73
2023-03-11T23:52:49.998Z,7.47
2023-03-11T23:55:19.680Z,6.87
2023-03-11T23:57:49.045Z,8.07
